Terminal Aerodrome Forecast
Issued by NWS

Current Version | Previous Version | Text Only | Print | Product List | Glossary On
Versions: 1 2 3 4 5 6 7 8 9 10 11 12 13 14 15 16 17 18
000 FTUS41 KBTV 292334 TAFMPV TAF KMPV 292334Z 3000/3024 24003KT P6SM SKC FM300400 VRB03KT P6SM BKN150 WS020/21040KT FM301100 19008G15KT 4SM -SHSN BR OVC050 FM301500 19012G20KT 5SM -SHRASN BR OVC025 FM302000 23012G20KT 6SM -SHRASN BR OVC025=

USA.gov is the U.S. government's official web portal to all federal, state and local government web resources and services.